createdAt,value
2019-05-19T00:00:54.273Z,9.57
2019-05-19T00:03:22.866Z,9.47
2019-05-19T00:05:51.494Z,8.47
2019-05-19T00:08:20.105Z,10.33
2019-05-19T00:10:48.870Z,10.80
2019-05-19T00:13:17.704Z,11.10
2019-05-19T00:15:46.441Z,10.50
2019-05-19T00:18:15.069Z,10.80
2019-05-19T00:20:44.558Z,10.60
2019-05-19T00:23:13.160Z,9.00
2019-05-19T00:25:41.798Z,11.30
2019-05-19T00:28:10.503Z,10.57
2019-05-19T00:30:39.116Z,9.10
2019-05-19T00:33:07.730Z,12.43
2019-05-19T00:35:36.421Z,9.93
2019-05-19T00:38:05.113Z,10.97
2019-05-19T00:40:33.734Z,10.60
2019-05-19T00:43:02.364Z,9.33
2019-05-19T00:45:31.078Z,9.73
2019-05-19T00:47:59.847Z,9.10
2019-05-19T00:50:28.609Z,9.00
2019-05-19T00:52:57.307Z,9.00
2019-05-19T00:55:26.010Z,9.60
2019-05-19T00:57:54.673Z,7.97
2019-05-19T01:00:23.423Z,7.33
2019-05-19T01:02:51.995Z,9.03
2019-05-19T01:05:20.942Z,8.03
2019-05-19T01:07:49.794Z,9.00
2019-05-19T01:10:18.767Z,8.40
2019-05-19T01:12:47.441Z,8.87
2019-05-19T01:15:16.291Z,8.10
2019-05-19T01:17:45.021Z,8.27
2019-05-19T01:20:13.880Z,10.23
2019-05-19T01:22:42.532Z,11.27
2019-05-19T01:25:11.479Z,13.00
2019-05-19T01:27:40.190Z,12.60
2019-05-19T01:30:10.398Z,11.90
2019-05-19T01:32:39.037Z,13.67
2019-05-19T01:35:07.907Z,12.40
2019-05-19T01:37:36.551Z,12.63
2019-05-19T01:40:05.533Z,13.17
2019-05-19T01:42:34.153Z,12.60
2019-05-19T01:45:02.840Z,13.10
2019-05-19T01:47:31.539Z,12.07
2019-05-19T01:50:17.132Z,12.33
2019-05-19T01:52:30.503Z,11.10
2019-05-19T01:54:59.140Z,10.37
2019-05-19T01:57:27.774Z,10.50
2019-05-19T01:59:56.386Z,11.30
2019-05-19T02:02:25.073Z,10.23
2019-05-19T02:04:53.693Z,10.73
2019-05-19T02:07:22.330Z,11.03
2019-05-19T02:09:50.934Z,11.83
2019-05-19T02:12:19.615Z,11.47
2019-05-19T02:14:48.234Z,12.53
2019-05-19T02:17:16.868Z,14.33
2019-05-19T02:19:45.527Z,11.23
2019-05-19T02:22:14.225Z,14.07
2019-05-19T02:24:42.903Z,13.90
2019-05-19T02:27:11.548Z,13.40
2019-05-19T02:29:40.158Z,11.70
2019-05-19T02:32:08.778Z,11.80
2019-05-19T02:34:37.400Z,12.70
2019-05-19T02:37:06.075Z,13.40
2019-05-19T02:39:34.693Z,14.73
2019-05-19T02:42:05.009Z,14.73
2019-05-19T02:44:34.457Z,15.13
2019-05-19T02:47:03.974Z,15.20
2019-05-19T02:49:34.239Z,17.10
2019-05-19T02:52:04.106Z,16.23
2019-05-19T02:54:34.162Z,14.70
2019-05-19T02:57:03.571Z,17.23
2019-05-19T02:59:32.258Z,17.10
2019-05-19T03:02:02.760Z,18.50
2019-05-19T03:04:31.577Z,18.67
2019-05-19T03:07:00.299Z,18.30
2019-05-19T03:09:28.925Z,18.33
2019-05-19T03:11:57.603Z,18.80
2019-05-19T03:14:26.381Z,17.00
2019-05-19T03:16:54.994Z,19.50
2019-05-19T03:19:23.722Z,17.57
2019-05-19T03:21:52.323Z,18.67
2019-05-19T03:24:21.015Z,20.80
2019-05-19T03:26:49.952Z,21.30
2019-05-19T03:29:22.171Z,19.83
2019-05-19T03:32:00.246Z,19.60
2019-05-19T03:34:28.869Z,22.43
2019-05-19T03:36:57.464Z,23.10
2019-05-19T03:39:26.116Z,24.07
2019-05-19T03:41:54.723Z,25.63
2019-05-19T03:44:23.360Z,25.17
2019-05-19T03:46:51.970Z,23.17
2019-05-19T03:49:20.740Z,27.40
2019-05-19T03:51:49.347Z,24.93
2019-05-19T03:54:17.975Z,24.93
2019-05-19T03:56:46.584Z,25.73
2019-05-19T03:59:15.203Z,25.63
2019-05-19T04:01:43.799Z,26.30
2019-05-19T04:04:12.411Z,24.80
2019-05-19T04:06:41.018Z,27.73
2019-05-19T04:09:09.646Z,26.33
2019-05-19T04:11:38.275Z,26.53
2019-05-19T04:14:06.914Z,25.97
2019-05-19T04:16:35.529Z,30.30
2019-05-19T04:19:04.206Z,31.07
2019-05-19T04:21:47.531Z,30.07
2019-05-19T04:24:03.195Z,27.67
2019-05-19T04:26:31.795Z,28.37
2019-05-19T04:29:00.461Z,32.20
2019-05-19T04:31:29.169Z,29.70
2019-05-19T04:33:57.809Z,30.50
2019-05-19T04:36:26.420Z,29.97
2019-05-19T04:38:55.095Z,30.10
2019-05-19T04:41:23.669Z,30.27
2019-05-19T04:43:52.275Z,28.63
2019-05-19T04:46:20.918Z,31.40
2019-05-19T04:48:49.532Z,31.83
2019-05-19T04:51:18.164Z,30.20
2019-05-19T04:53:46.769Z,31.20
2019-05-19T04:56:19.378Z,28.93
2019-05-19T04:58:45.811Z,30.43
2019-05-19T05:01:14.516Z,29.13
2019-05-19T05:03:43.132Z,28.60
2019-05-19T05:06:11.806Z,25.80
2019-05-19T05:08:40.440Z,26.40
2019-05-19T05:11:09.133Z,28.13
2019-05-19T05:13:37.754Z,31.00
2019-05-19T05:16:06.398Z,31.30
2019-05-19T05:18:35.043Z,30.93
2019-05-19T05:21:03.726Z,29.07
2019-05-19T05:23:32.345Z,28.60
2019-05-19T05:26:01.036Z,28.37
2019-05-19T05:28:29.643Z,31.60
2019-05-19T05:30:58.292Z,35.30
2019-05-19T05:33:26.922Z,31.00
2019-05-19T05:35:55.628Z,35.10
2019-05-19T05:38:24.268Z,35.40
2019-05-19T05:40:52.892Z,37.00
2019-05-19T05:43:21.496Z,32.37
2019-05-19T05:45:50.123Z,31.07
2019-05-19T05:48:18.735Z,33.50
2019-05-19T05:50:47.355Z,33.47
2019-05-19T05:53:15.975Z,29.87
2019-05-19T05:55:44.578Z,33.33
2019-05-19T05:58:13.543Z,33.77
2019-05-19T06:00:42.194Z,30.40
2019-05-19T06:03:10.979Z,30.93
2019-05-19T06:05:39.790Z,27.10
2019-05-19T06:08:08.496Z,28.83
2019-05-19T06:10:37.227Z,31.50
2019-05-19T06:13:05.889Z,28.87
2019-05-19T06:15:34.549Z,27.73
2019-05-19T06:18:03.276Z,28.60
2019-05-19T06:20:32.035Z,28.17
2019-05-19T06:23:00.660Z,28.77
2019-05-19T06:25:29.368Z,27.47
2019-05-19T06:27:58.041Z,27.97
2019-05-19T06:30:27.204Z,26.43
2019-05-19T06:32:56.931Z,25.87
2019-05-19T06:35:25.588Z,26.83
2019-05-19T06:37:54.250Z,24.17
2019-05-19T06:40:22.956Z,25.70
2019-05-19T06:42:51.593Z,26.60
2019-05-19T06:45:20.266Z,26.20
2019-05-19T06:47:54.813Z,25.27
2019-05-19T06:50:27.073Z,23.47
2019-05-19T06:53:12.920Z,23.93
2019-05-19T06:55:30.863Z,21.13
2019-05-19T06:58:00.537Z,20.30
2019-05-19T07:00:30.709Z,20.80
2019-05-19T07:02:59.648Z,22.60
2019-05-19T07:05:30.091Z,22.47
2019-05-19T07:08:01.964Z,22.90
2019-05-19T07:10:32.991Z,21.67
2019-05-19T07:13:06.714Z,20.00
2019-05-19T07:15:36.751Z,20.63
2019-05-19T07:18:11.408Z,18.60
2019-05-19T07:20:40.027Z,21.47
2019-05-19T07:23:08.657Z,19.83
2019-05-19T07:25:37.281Z,17.93
2019-05-19T07:28:05.974Z,17.27
2019-05-19T07:30:34.673Z,16.73
2019-05-19T07:33:03.342Z,21.17
2019-05-19T07:35:31.970Z,20.90
2019-05-19T07:38:00.700Z,16.10
2019-05-19T07:40:29.391Z,15.67
2019-05-19T07:42:58.038Z,16.27
2019-05-19T07:45:26.807Z,17.53
2019-05-19T07:47:55.416Z,16.40
2019-05-19T07:50:24.049Z,16.50
2019-05-19T07:52:52.706Z,17.40
2019-05-19T07:55:21.303Z,16.40
2019-05-19T07:57:49.983Z,13.93
2019-05-19T08:00:18.672Z,13.60
2019-05-19T08:02:47.356Z,12.23
2019-05-19T08:05:16.030Z,13.10
2019-05-19T08:07:44.721Z,9.77
2019-05-19T08:10:13.603Z,10.90
2019-05-19T08:12:42.232Z,9.60
2019-05-19T08:15:11.030Z,8.67
2019-05-19T08:17:39.905Z,9.80
2019-05-19T08:20:09.112Z,11.10
2019-05-19T08:22:37.727Z,9.67
2019-05-19T08:25:07.270Z,11.60
2019-05-19T08:27:35.925Z,11.90
2019-05-19T08:30:04.950Z,10.90
2019-05-19T08:32:33.573Z,10.93
2019-05-19T08:35:04.328Z,11.80
2019-05-19T08:37:32.687Z,10.97
2019-05-19T08:40:02.146Z,11.67
2019-05-19T08:42:32.940Z,13.83
2019-05-19T08:45:02.134Z,9.40
2019-05-19T08:47:30.799Z,9.53
2019-05-19T08:49:59.412Z,11.73
2019-05-19T08:52:28.037Z,10.13
2019-05-19T08:54:56.639Z,10.73
2019-05-19T08:57:25.349Z,11.60
2019-05-19T08:59:53.972Z,10.77
2019-05-19T09:02:42.379Z,10.83
2019-05-19T09:05:11.042Z,9.90
2019-05-19T09:07:39.689Z,10.30
2019-05-19T09:10:08.759Z,10.60
2019-05-19T09:12:37.798Z,11.43
2019-05-19T09:15:06.669Z,10.77
2019-05-19T09:17:35.315Z,10.47
2019-05-19T09:20:04.421Z,9.50
2019-05-19T09:22:33.111Z,8.97
2019-05-19T09:25:02.022Z,7.90
2019-05-19T09:27:30.950Z,9.37
2019-05-19T09:29:59.580Z,8.50
2019-05-19T09:32:28.204Z,8.40
2019-05-19T09:34:56.824Z,9.20
2019-05-19T09:37:25.541Z,8.93
2019-05-19T09:39:54.166Z,8.27
2019-05-19T09:42:22.846Z,8.13
2019-05-19T09:44:51.523Z,7.67
2019-05-19T09:47:20.454Z,7.93
2019-05-19T09:49:49.055Z,8.37
2019-05-19T09:52:17.777Z,7.60
2019-05-19T09:54:46.467Z,9.50
2019-05-19T09:57:15.080Z,7.37
2019-05-19T09:59:43.709Z,6.30
2019-05-19T10:02:12.532Z,6.20
2019-05-19T10:04:41.182Z,7.10
2019-05-19T10:07:10.126Z,6.37
2019-05-19T10:09:54.669Z,5.73
2019-05-19T10:12:23.277Z,6.20
2019-05-19T10:14:51.906Z,6.07
2019-05-19T10:17:20.661Z,5.97
2019-05-19T10:19:49.283Z,6.17
2019-05-19T10:22:17.901Z,6.20
2019-05-19T10:25:04.228Z,6.97
2019-05-19T10:27:16.897Z,7.50
2019-05-19T10:29:45.724Z,6.17
2019-05-19T10:32:14.532Z,6.60
2019-05-19T10:34:43.284Z,5.93
2019-05-19T10:37:11.884Z,5.80
2019-05-19T10:39:40.655Z,5.77
2019-05-19T10:42:09.330Z,5.27
2019-05-19T10:44:38.083Z,6.97
2019-05-19T10:48:20.337Z,7.53
2019-05-19T10:50:48.933Z,7.30
2019-05-19T10:53:17.609Z,6.20
2019-05-19T10:55:46.346Z,6.30
2019-05-19T10:58:14.970Z,6.83
2019-05-19T11:00:43.577Z,5.73
2019-05-19T11:03:12.169Z,5.60
2019-05-19T11:05:40.878Z,6.10
2019-05-19T11:08:09.459Z,9.13
2019-05-19T11:10:38.095Z,7.70
2019-05-19T11:13:06.680Z,7.30
2019-05-19T11:15:35.386Z,5.33
2019-05-19T11:18:06.495Z,9.37
2019-05-19T11:20:34.512Z,30.53
2019-05-19T11:23:03.123Z,6.90
2019-05-19T11:25:34.363Z,11.80
2019-05-19T11:28:02.212Z,6.07
2019-05-19T11:30:30.891Z,5.53
2019-05-19T11:32:59.492Z,5.40
2019-05-19T11:35:28.322Z,5.40
2019-05-19T11:37:57.076Z,9.47
2019-05-19T11:40:25.680Z,4.80
2019-05-19T11:42:54.345Z,6.03
2019-05-19T11:45:23.053Z,6.30
2019-05-19T11:47:51.689Z,5.10
2019-05-19T11:50:20.318Z,4.63
2019-05-19T11:52:48.976Z,11.00
2019-05-19T11:55:17.695Z,5.23
2019-05-19T11:57:46.285Z,4.80
2019-05-19T12:00:15.470Z,5.37
2019-05-19T12:02:44.205Z,5.47
2019-05-19T12:05:13.573Z,5.73
2019-05-19T12:07:42.391Z,6.93
2019-05-19T12:10:11.127Z,5.47
2019-05-19T12:12:39.787Z,9.83
2019-05-19T12:15:09.278Z,5.53
2019-05-19T12:17:37.897Z,5.07
2019-05-19T12:20:06.890Z,5.00
2019-05-19T12:22:35.487Z,5.10
2019-05-19T12:25:04.290Z,4.97
2019-05-19T12:27:32.920Z,4.97
2019-05-19T12:33:51.100Z,4.70
2019-05-19T12:36:10.199Z,6.03
2019-05-19T12:38:38.831Z,4.70
2019-05-19T12:41:07.531Z,5.60
2019-05-19T12:43:36.134Z,4.47
2019-05-19T12:46:13.587Z,5.33
2019-05-19T12:48:35.117Z,5.10
2019-05-19T12:51:03.788Z,5.10
2019-05-19T12:53:32.489Z,5.00
2019-05-19T12:56:01.465Z,3.70
2019-05-19T12:58:30.074Z,4.73
2019-05-19T13:00:58.807Z,5.73
2019-05-19T13:03:27.515Z,4.63
2019-05-19T13:05:56.345Z,4.20
2019-05-19T13:08:25.001Z,8.53
2019-05-19T13:10:53.809Z,5.70
2019-05-19T13:13:22.464Z,4.80
2019-05-19T13:15:51.230Z,4.63
2019-05-19T13:18:19.825Z,5.93
2019-05-19T13:20:48.613Z,5.20
2019-05-19T13:23:17.281Z,4.97
2019-05-19T13:25:46.302Z,5.50
2019-05-19T13:28:14.925Z,9.43
2019-05-19T13:30:43.832Z,8.47
2019-05-19T13:33:12.763Z,10.20
2019-05-19T13:35:41.502Z,10.20
2019-05-19T13:38:10.317Z,16.87
2019-05-19T13:40:40.013Z,7.37
2019-05-19T13:43:09.537Z,5.10
2019-05-19T13:45:47.654Z,4.67
2019-05-19T13:48:17.954Z,5.20
2019-05-19T13:50:49.637Z,5.17
2019-05-19T13:53:25.700Z,4.60
2019-05-19T13:57:11.074Z,4.80
2019-05-19T14:14:41.200Z,4.20
2019-05-19T14:17:44.829Z,4.80
2019-05-19T14:20:53.870Z,5.00
2019-05-19T14:27:30.548Z,4.10
2019-05-19T14:30:03.452Z,3.63
2019-05-19T14:33:01.012Z,4.73
2019-05-19T14:39:54.145Z,3.73
2019-05-19T14:42:57.948Z,4.57
2019-05-19T14:45:33.997Z,4.33
2019-05-19T14:48:13.174Z,3.50
2019-05-19T14:50:54.471Z,3.50
2019-05-19T14:56:58.791Z,4.13
2019-05-19T14:59:27.412Z,3.77
2019-05-19T15:01:56.302Z,3.60
2019-05-19T15:04:25.399Z,4.07
2019-05-19T15:06:54.091Z,3.60
2019-05-19T15:09:22.832Z,4.03
2019-05-19T15:11:52.717Z,3.53
2019-05-19T15:14:21.366Z,4.50
2019-05-19T15:16:51.064Z,4.53
2019-05-19T15:19:19.714Z,3.70
2019-05-19T15:21:48.372Z,3.77
2019-05-19T15:24:16.792Z,3.80
2019-05-19T15:26:45.409Z,4.47
2019-05-19T15:29:14.033Z,3.50
2019-05-19T15:31:42.691Z,3.77
2019-05-19T15:34:11.330Z,4.47
2019-05-19T15:36:40.263Z,4.40
2019-05-19T15:39:08.916Z,4.90
2019-05-19T15:41:37.550Z,3.83
2019-05-19T15:44:06.684Z,5.17
2019-05-19T15:46:35.378Z,5.80
2019-05-19T15:49:04.058Z,3.90
2019-05-19T15:51:37.415Z,4.80
2019-05-19T15:54:03.144Z,4.60
2019-05-19T15:56:32.060Z,4.33
2019-05-19T15:59:00.757Z,4.97
2019-05-19T16:01:30.656Z,4.90
2019-05-19T16:04:07.307Z,3.93
2019-05-19T16:06:39.048Z,4.33
2019-05-19T16:09:07.932Z,3.77
2019-05-19T16:12:02.399Z,3.50
2019-05-19T16:14:32.526Z,3.63
2019-05-19T16:17:01.184Z,3.03
2019-05-19T16:19:29.870Z,2.93
2019-05-19T16:21:58.520Z,5.20
2019-05-19T16:24:27.168Z,3.87
2019-05-19T16:26:55.771Z,3.53
2019-05-19T16:29:24.393Z,5.33
2019-05-19T16:31:53.014Z,3.30
2019-05-19T16:34:21.623Z,3.53
2019-05-19T16:36:50.311Z,4.60
2019-05-19T16:39:18.951Z,4.20
2019-05-19T16:41:47.629Z,6.77
2019-05-19T16:44:16.239Z,5.00
2019-05-19T16:46:44.834Z,3.80
2019-05-19T16:49:13.474Z,5.70
2019-05-19T16:51:42.163Z,5.23
2019-05-19T16:54:16.591Z,5.40
2019-05-19T16:56:57.623Z,6.03
2019-05-19T17:12:28.604Z,3.53
2019-05-19T17:15:00.503Z,4.77
2019-05-19T17:17:40.935Z,6.10
2019-05-19T17:20:14.767Z,5.33
2019-05-19T17:22:45.158Z,4.30
2019-05-19T17:25:21.082Z,4.23
2019-05-19T17:27:53.106Z,4.10
2019-05-19T17:30:22.478Z,5.53
2019-05-19T17:33:01.061Z,8.67
2019-05-19T17:35:34.642Z,4.90
2019-05-19T17:38:13.148Z,4.70
2019-05-19T17:40:43.610Z,5.17
2019-05-19T17:43:13.628Z,4.73
2019-05-19T17:45:55.113Z,5.30
2019-05-19T17:48:26.900Z,5.13
2019-05-19T17:51:18.691Z,3.67
2019-05-19T17:53:48.024Z,3.80
2019-05-19T17:56:22.786Z,4.77
2019-05-19T17:58:55.651Z,3.63
2019-05-19T18:01:33.516Z,3.77
2019-05-19T18:04:03.465Z,6.13
2019-05-19T18:06:34.511Z,4.20
2019-05-19T18:09:06.959Z,5.67
2019-05-19T18:11:40.250Z,4.83
2019-05-19T18:14:12.241Z,4.10
2019-05-19T18:16:45.831Z,3.90
2019-05-19T18:19:33.956Z,5.47
2019-05-19T18:22:32.748Z,5.70
2019-05-19T18:25:10.795Z,7.93
2019-05-19T18:28:14.140Z,3.80
2019-05-19T18:30:58.765Z,3.63
2019-05-19T18:34:03.714Z,3.23
2019-05-19T18:36:37.553Z,3.73
2019-05-19T18:39:12.358Z,4.80
2019-05-19T18:42:08.533Z,3.70
2019-05-19T18:44:42.473Z,4.70
2019-05-19T18:47:18.861Z,4.50
2019-05-19T18:49:59.810Z,4.10
2019-05-19T18:52:34.337Z,3.63
2019-05-19T18:55:17.264Z,6.50
2019-05-19T18:57:53.563Z,3.80
2019-05-19T19:00:51.230Z,5.20
2019-05-19T19:03:41.578Z,4.10
2019-05-19T19:06:28.546Z,5.33
2019-05-19T19:09:53.145Z,6.87
2019-05-19T19:12:35.342Z,4.87
2019-05-19T19:15:09.057Z,6.23
2019-05-19T19:17:46.091Z,4.23
2019-05-19T19:20:22.205Z,5.33
2019-05-19T19:23:15.252Z,6.00
2019-05-19T19:25:50.889Z,6.43
2019-05-19T19:28:51.509Z,6.97
2019-05-19T19:31:27.651Z,6.73
2019-05-19T19:34:05.055Z,10.17
2019-05-19T19:37:26.617Z,7.90
2019-05-19T19:40:00.347Z,6.70
2019-05-19T19:43:10.185Z,5.83
2019-05-19T19:46:09.469Z,4.90
2019-05-19T19:48:52.539Z,6.97
2019-05-19T19:51:22.012Z,5.90
2019-05-19T19:56:53.235Z,6.53
2019-05-19T19:59:31.924Z,7.00
2019-05-19T20:02:29.945Z,5.93
2019-05-19T20:05:32.143Z,7.10
2019-05-19T20:08:05.685Z,6.73
2019-05-19T20:10:55.500Z,8.27
2019-05-19T20:13:32.931Z,7.70
2019-05-19T20:16:08.135Z,6.17
2019-05-19T20:18:44.967Z,7.67
2019-05-19T20:21:37.583Z,6.90
2019-05-19T20:24:12.221Z,9.60
2019-05-19T20:30:35.221Z,7.63
2019-05-19T20:36:19.629Z,8.13
2019-05-19T20:39:00.990Z,7.63
2019-05-19T20:45:21.418Z,7.40
2019-05-19T20:47:53.468Z,8.00
2019-05-19T20:50:39.785Z,8.10
2019-05-19T20:53:10.577Z,10.83
2019-05-19T20:55:53.538Z,9.93
2019-05-19T20:58:31.123Z,10.37
2019-05-19T21:01:27.300Z,8.27
2019-05-19T21:04:04.796Z,7.67
2019-05-19T21:06:36.377Z,8.87
2019-05-19T21:09:35.227Z,9.43
2019-05-19T21:20:12.401Z,9.00
2019-05-19T21:22:55.886Z,8.50
2019-05-19T21:25:46.307Z,8.57
2019-05-19T21:28:21.210Z,9.57
2019-05-19T21:31:27.624Z,8.27
2019-05-19T21:34:28.880Z,8.20
2019-05-19T21:37:29.076Z,8.13
2019-05-19T21:40:15.803Z,9.67
2019-05-19T21:42:48.369Z,7.20
2019-05-19T21:45:25.471Z,7.47
2019-05-19T21:48:08.793Z,8.50
2019-05-19T21:50:46.429Z,7.90
2019-05-19T21:53:30.694Z,9.43
2019-05-19T21:56:10.190Z,10.00
2019-05-19T21:58:53.503Z,8.00
2019-05-19T22:01:30.324Z,8.53
2019-05-19T22:03:59.859Z,8.90
2019-05-19T22:06:40.660Z,11.00
2019-05-19T22:09:16.594Z,9.83
2019-05-19T22:11:50.416Z,10.10
2019-05-19T22:14:23.478Z,8.93
2019-05-19T22:16:53.497Z,9.53
2019-05-19T22:19:28.756Z,11.93
2019-05-19T22:22:05.021Z,11.20
2019-05-19T22:24:37.744Z,9.27
2019-05-19T22:27:11.998Z,9.07
2019-05-19T22:29:44.658Z,7.73
2019-05-19T22:32:26.478Z,9.93
2019-05-19T22:35:15.261Z,8.10
2019-05-19T22:40:49.432Z,8.00
2019-05-19T22:43:51.238Z,8.97
2019-05-19T22:46:41.482Z,8.90
2019-05-19T22:49:34.877Z,8.40
2019-05-19T22:52:33.435Z,11.73
2019-05-19T22:58:37.808Z,10.63
2019-05-19T23:01:06.534Z,9.57
2019-05-19T23:03:35.123Z,9.67
2019-05-19T23:06:04.024Z,8.90
2019-05-19T23:08:32.651Z,8.57
2019-05-19T23:11:01.114Z,8.70
2019-05-19T23:13:29.753Z,8.33
2019-05-19T23:15:58.390Z,8.43
2019-05-19T23:18:27.001Z,8.23
2019-05-19T23:20:55.709Z,7.63
2019-05-19T23:23:24.340Z,8.43
2019-05-19T23:25:53.021Z,8.20
2019-05-19T23:28:21.631Z,8.90
2019-05-19T23:30:50.234Z,8.23
2019-05-19T23:33:20.206Z,8.03
2019-05-19T23:35:48.906Z,7.53
2019-05-19T23:38:17.631Z,9.00
2019-05-19T23:40:46.257Z,7.20
2019-05-19T23:43:14.883Z,7.77
2019-05-19T23:52:52.168Z,7.13
2019-05-19T23:55:20.868Z,7.27
2019-05-19T23:57:49.488Z,8.23
